createdAt,value
2019-03-27T00:00:37.724Z,1021.80
2019-03-27T00:01:37.733Z,1021.85
2019-03-27T00:02:37.749Z,1021.85
2019-03-27T00:03:37.762Z,1021.81
2019-03-27T00:04:37.776Z,1021.84
2019-03-27T00:05:37.788Z,1021.81
2019-03-27T00:06:37.798Z,1021.83
2019-03-27T00:07:37.813Z,1021.81
2019-03-27T00:08:37.825Z,1021.84
2019-03-27T00:09:37.839Z,1021.81
2019-03-27T00:10:37.851Z,1021.84
2019-03-27T00:11:37.865Z,1021.85
2019-03-27T00:12:37.879Z,1021.85
2019-03-27T00:13:37.891Z,1021.89
2019-03-27T00:14:37.903Z,1021.84
2019-03-27T00:15:37.916Z,1021.85
2019-03-27T00:16:37.930Z,1021.85
2019-03-27T00:17:37.942Z,1021.82
2019-03-27T00:18:37.954Z,1021.87
2019-03-27T00:19:37.982Z,1021.87
2019-03-27T00:20:37.981Z,1021.86
2019-03-27T00:21:37.999Z,1021.89
2019-03-27T00:22:38.006Z,1021.91
2019-03-27T00:23:38.025Z,1021.90
2019-03-27T00:24:38.035Z,1021.83
2019-03-27T00:25:38.045Z,1021.89
2019-03-27T00:26:38.063Z,1021.85
2019-03-27T00:27:38.075Z,1021.88
2019-03-27T00:28:38.088Z,1021.88
2019-03-27T00:29:38.102Z,1021.86
2019-03-27T00:30:38.111Z,1021.84
2019-03-27T00:31:38.126Z,1021.89
2019-03-27T00:32:38.142Z,1021.89
2019-03-27T00:33:38.163Z,1021.90
2019-03-27T00:34:38.164Z,1021.87
2019-03-27T00:35:38.178Z,1021.91
2019-03-27T00:36:38.193Z,1021.92
2019-03-27T00:37:38.210Z,1021.91
2019-03-27T00:38:38.218Z,1021.95
2019-03-27T00:39:38.233Z,1021.91
2019-03-27T00:40:38.245Z,1021.91
2019-03-27T00:41:38.259Z,1021.91
2019-03-27T00:42:38.274Z,1021.89
2019-03-27T00:43:38.313Z,1021.86
2019-03-27T00:44:38.300Z,1021.86
2019-03-27T00:45:38.315Z,1021.83
2019-03-27T00:46:38.331Z,1021.88
2019-03-27T00:47:38.341Z,1021.84
2019-03-27T00:48:38.354Z,1021.86
2019-03-27T00:49:38.366Z,1021.83
2019-03-27T00:50:38.380Z,1021.82
2019-03-27T00:51:38.393Z,1021.83
2019-03-27T00:52:38.411Z,1021.85
2019-03-27T00:53:38.420Z,1021.85
2019-03-27T00:54:38.435Z,1021.85
2019-03-27T00:55:38.448Z,1021.88
2019-03-27T00:56:38.463Z,1021.89
2019-03-27T00:57:38.474Z,1021.82
2019-03-27T00:58:38.488Z,1021.83
2019-03-27T00:59:38.506Z,1021.85
2019-03-27T01:00:38.516Z,1021.82
2019-03-27T01:01:38.531Z,1021.83
2019-03-27T01:02:38.545Z,1021.84
2019-03-27T01:03:38.557Z,1021.82
2019-03-27T01:04:38.576Z,1021.83
2019-03-27T01:05:38.584Z,1021.84
2019-03-27T01:06:38.598Z,1021.82
2019-03-27T01:07:38.612Z,1021.80
2019-03-27T01:08:38.628Z,1021.81
2019-03-27T01:09:38.640Z,1021.82
2019-03-27T01:10:38.653Z,1021.80
2019-03-27T01:11:38.665Z,1021.81
2019-03-27T01:12:38.682Z,1021.76
2019-03-27T01:13:38.698Z,1021.76
2019-03-27T01:14:38.709Z,1021.79
2019-03-27T01:15:39.925Z,1021.74
2019-03-27T01:16:38.736Z,1021.72
2019-03-27T01:17:38.750Z,1021.72
2019-03-27T01:18:38.764Z,1021.75
2019-03-27T01:19:38.776Z,1021.70
2019-03-27T01:20:38.799Z,1021.73
2019-03-27T01:21:38.805Z,1021.68
2019-03-27T01:22:38.817Z,1021.71
2019-03-27T01:23:38.831Z,1021.75
2019-03-27T01:24:38.848Z,1021.72
2019-03-27T01:25:38.929Z,1021.77
2019-03-27T01:26:38.875Z,1021.79
2019-03-27T01:27:38.890Z,1021.81
2019-03-27T01:28:38.900Z,1021.78
2019-03-27T01:29:38.920Z,1021.78
2019-03-27T01:30:38.929Z,1021.82
2019-03-27T01:31:38.944Z,1021.78
2019-03-27T01:32:38.956Z,1021.80
2019-03-27T01:33:38.970Z,1021.78
2019-03-27T01:34:38.983Z,1021.81
2019-03-27T01:35:38.999Z,1021.77
2019-03-27T01:36:39.012Z,1021.79
2019-03-27T01:37:39.024Z,1021.79
2019-03-27T01:38:39.040Z,1021.81
2019-03-27T01:39:39.060Z,1021.83
2019-03-27T01:40:39.065Z,1021.82
2019-03-27T01:41:39.081Z,1021.81
2019-03-27T01:42:39.096Z,1021.80
2019-03-27T01:43:39.110Z,1021.83
2019-03-27T01:44:39.124Z,1021.85
2019-03-27T01:45:52.200Z,1021.82
2019-03-27T01:46:39.151Z,1021.86
2019-03-27T01:47:39.241Z,1021.88
2019-03-27T01:48:39.179Z,1021.89
2019-03-27T01:49:39.200Z,1021.86
2019-03-27T01:50:39.273Z,1021.86
2019-03-27T01:51:39.271Z,1021.86
2019-03-27T01:52:39.290Z,1021.92
2019-03-27T01:53:39.281Z,1021.94
2019-03-27T01:54:39.341Z,1021.90
2019-03-27T01:55:39.354Z,1021.89
2019-03-27T01:56:39.336Z,1021.92
2019-03-27T01:57:39.330Z,1021.95
2019-03-27T01:58:39.340Z,1021.95
2019-03-27T01:59:39.334Z,1021.91
2019-03-27T02:00:39.354Z,1021.92
2019-03-27T02:01:39.360Z,1021.97
2019-03-27T02:02:39.373Z,1022.01
2019-03-27T02:03:39.386Z,1022.01
2019-03-27T02:04:39.400Z,1022.01
2019-03-27T02:05:39.411Z,1022.02
2019-03-27T02:06:39.505Z,1021.99
2019-03-27T02:07:39.440Z,1022.01
2019-03-27T02:08:39.517Z,1021.96
2019-03-27T02:09:39.467Z,1021.98
2019-03-27T02:10:39.481Z,1021.94
2019-03-27T02:11:39.495Z,1021.94
2019-03-27T02:12:39.511Z,1021.92
2019-03-27T02:13:39.526Z,1021.98
2019-03-27T02:14:39.542Z,1021.92
2019-03-27T02:15:39.550Z,1021.92
2019-03-27T02:16:39.563Z,1021.91
2019-03-27T02:17:39.577Z,1021.89
2019-03-27T02:18:39.597Z,1021.96
2019-03-27T02:19:39.604Z,1021.97
2019-03-27T02:20:39.618Z,1021.89
2019-03-27T02:21:39.934Z,1021.93
2019-03-27T02:22:39.645Z,1021.93
2019-03-27T02:23:39.657Z,1021.90
2019-03-27T02:24:39.674Z,1021.93
2019-03-27T02:25:39.686Z,1021.89
2019-03-27T02:26:39.701Z,1021.94
2019-03-27T02:27:39.725Z,1021.96
2019-03-27T02:28:39.730Z,1021.93
2019-03-27T02:29:39.742Z,1021.93
2019-03-27T02:30:39.756Z,1021.95
2019-03-27T02:31:39.845Z,1021.93
2019-03-27T02:32:39.784Z,1021.96
2019-03-27T02:33:39.795Z,1021.93
2019-03-27T02:34:39.810Z,1021.95
2019-03-27T02:35:39.824Z,1021.92
2019-03-27T02:36:39.843Z,1021.94
2019-03-27T02:37:39.855Z,1021.92
2019-03-27T02:38:39.868Z,1021.91
2019-03-27T02:39:39.887Z,1021.93
2019-03-27T02:40:39.893Z,1021.89
2019-03-27T02:41:39.904Z,1021.88
2019-03-27T02:42:39.918Z,1021.89
2019-03-27T02:43:39.933Z,1021.93
2019-03-27T02:44:39.946Z,1021.90
2019-03-27T02:45:39.962Z,1021.91
2019-03-27T02:46:39.976Z,1021.93
2019-03-27T02:47:39.990Z,1021.92
2019-03-27T02:48:40.003Z,1021.95
2019-03-27T02:49:40.016Z,1021.92
2019-03-27T02:50:40.030Z,1021.90
2019-03-27T02:51:40.041Z,1021.90
2019-03-27T02:52:40.058Z,1021.87
2019-03-27T02:53:40.071Z,1021.87
2019-03-27T02:54:40.085Z,1021.91
2019-03-27T02:55:40.100Z,1021.91
2019-03-27T02:56:40.117Z,1021.90
2019-03-27T02:57:40.127Z,1021.93
2019-03-27T02:58:40.138Z,1021.96
2019-03-27T02:59:40.150Z,1022.01
2019-03-27T03:00:40.172Z,1021.97
2019-03-27T03:01:40.180Z,1021.98
2019-03-27T03:02:40.196Z,1022.00
2019-03-27T03:03:40.206Z,1021.99
2019-03-27T03:04:40.224Z,1021.97
2019-03-27T03:05:40.237Z,1022.02
2019-03-27T03:06:40.251Z,1022.03
2019-03-27T03:07:40.262Z,1021.99
2019-03-27T03:08:40.281Z,1021.98
2019-03-27T03:09:40.295Z,1021.96
2019-03-27T03:10:40.307Z,1021.96
2019-03-27T03:11:40.316Z,1021.98
2019-03-27T03:12:40.331Z,1021.95
2019-03-27T03:13:40.342Z,1021.98
2019-03-27T03:14:40.357Z,1021.98
2019-03-27T03:15:40.370Z,1022.00
2019-03-27T03:16:42.837Z,1022.00
2019-03-27T03:17:40.399Z,1022.00
2019-03-27T03:18:40.412Z,1021.99
2019-03-27T03:19:40.429Z,1022.00
2019-03-27T03:20:40.440Z,1021.97
2019-03-27T03:21:40.453Z,1022.02
2019-03-27T03:22:40.468Z,1022.01
2019-03-27T03:23:40.481Z,1022.01
2019-03-27T03:24:40.495Z,1021.97
2019-03-27T03:25:40.509Z,1022.01
2019-03-27T03:26:40.523Z,1022.02
2019-03-27T03:27:40.537Z,1022.02
2019-03-27T03:28:40.549Z,1022.04
2019-03-27T03:29:40.562Z,1022.02
2019-03-27T03:30:40.580Z,1022.00
2019-03-27T03:31:40.640Z,1022.06
2019-03-27T03:32:40.625Z,1022.07
2019-03-27T03:33:40.627Z,1022.08
2019-03-27T03:34:40.656Z,1022.04
2019-03-27T03:35:40.651Z,1022.07
2019-03-27T03:36:40.659Z,1022.09
2019-03-27T03:37:40.674Z,1022.08
2019-03-27T03:38:40.697Z,1022.11
2019-03-27T03:39:40.701Z,1022.07
2019-03-27T03:40:40.715Z,1022.07
2019-03-27T03:41:40.728Z,1022.09
2019-03-27T03:42:40.740Z,1022.12
2019-03-27T03:43:40.755Z,1022.12
2019-03-27T03:44:40.774Z,1022.16
2019-03-27T03:45:40.785Z,1022.17
2019-03-27T03:46:40.797Z,1022.19
2019-03-27T03:47:40.812Z,1022.23
2019-03-27T03:48:40.827Z,1022.22
2019-03-27T03:49:40.842Z,1022.28
2019-03-27T03:50:40.857Z,1022.28
2019-03-27T03:51:40.866Z,1022.29
2019-03-27T03:52:45.340Z,1022.25
2019-03-27T03:53:40.900Z,1022.27
2019-03-27T03:54:40.910Z,1022.27
2019-03-27T03:55:40.928Z,1022.26
2019-03-27T03:56:40.962Z,1022.29
2019-03-27T03:57:40.949Z,1022.32
2019-03-27T03:58:40.965Z,1022.29
2019-03-27T03:59:40.978Z,1022.31
2019-03-27T04:00:40.991Z,1022.34
2019-03-27T04:01:41.009Z,1022.33
2019-03-27T04:02:41.029Z,1022.31
2019-03-27T04:03:41.117Z,1022.29
2019-03-27T04:04:41.118Z,1022.29
2019-03-27T04:05:41.121Z,1022.29
2019-03-27T04:06:41.129Z,1022.36
2019-03-27T04:07:41.177Z,1022.32
2019-03-27T04:08:41.177Z,1022.32
2019-03-27T04:09:41.190Z,1022.33
2019-03-27T04:10:41.177Z,1022.33
2019-03-27T04:11:41.194Z,1022.31
2019-03-27T04:12:41.186Z,1022.31
2019-03-27T04:13:41.177Z,1022.32
2019-03-27T04:14:41.193Z,1022.29
2019-03-27T04:15:41.207Z,1022.25
2019-03-27T04:16:41.238Z,1022.28
2019-03-27T04:17:41.234Z,1022.28
2019-03-27T04:18:41.249Z,1022.29
2019-03-27T04:19:41.260Z,1022.32
2019-03-27T04:20:41.279Z,1022.29
2019-03-27T04:21:41.292Z,1022.32
2019-03-27T04:22:41.312Z,1022.34
2019-03-27T04:23:41.319Z,1022.30
2019-03-27T04:24:41.334Z,1022.34
2019-03-27T04:26:07.032Z,1022.32
2019-03-27T04:26:41.362Z,1022.33
2019-03-27T04:27:41.377Z,1022.36
2019-03-27T04:28:41.390Z,1022.35
2019-03-27T04:29:41.413Z,1022.38
2019-03-27T04:30:41.418Z,1022.38
2019-03-27T04:31:41.434Z,1022.41
2019-03-27T04:32:41.448Z,1022.41
2019-03-27T04:33:41.462Z,1022.43
2019-03-27T04:34:41.480Z,1022.43
2019-03-27T04:35:41.495Z,1022.43
2019-03-27T04:36:41.510Z,1022.47
2019-03-27T04:37:41.525Z,1022.50
2019-03-27T04:38:41.541Z,1022.51
2019-03-27T04:39:41.550Z,1022.50
2019-03-27T04:40:41.564Z,1022.53
2019-03-27T04:41:41.579Z,1022.53
2019-03-27T04:42:41.590Z,1022.54
2019-03-27T04:43:41.605Z,1022.55
2019-03-27T04:44:41.620Z,1022.54
2019-03-27T04:45:41.639Z,1022.59
2019-03-27T04:46:41.650Z,1022.51
2019-03-27T04:47:41.662Z,1022.59
2019-03-27T04:48:41.681Z,1022.60
2019-03-27T04:49:41.694Z,1022.54
2019-03-27T04:50:41.709Z,1022.59
2019-03-27T04:51:41.721Z,1022.60
2019-03-27T04:52:41.735Z,1022.56
2019-03-27T04:53:41.750Z,1022.60
2019-03-27T04:54:41.766Z,1022.61
2019-03-27T04:55:41.781Z,1022.62
2019-03-27T04:56:41.800Z,1022.60
2019-03-27T04:57:41.811Z,1022.63
2019-03-27T04:58:41.822Z,1022.61
2019-03-27T04:59:41.839Z,1022.66
2019-03-27T05:00:41.863Z,1022.62
2019-03-27T05:01:41.866Z,1022.64
2019-03-27T05:02:41.888Z,1022.63
2019-03-27T05:03:41.897Z,1022.64
2019-03-27T05:04:41.912Z,1022.63
2019-03-27T05:05:41.932Z,1022.66
2019-03-27T05:06:41.940Z,1022.71
2019-03-27T05:07:41.955Z,1022.70
2019-03-27T05:08:41.970Z,1022.75
2019-03-27T05:09:41.983Z,1022.74
2019-03-27T05:10:41.999Z,1022.72
2019-03-27T05:11:42.017Z,1022.74
2019-03-27T05:12:42.027Z,1022.75
2019-03-27T05:13:42.041Z,1022.76
2019-03-27T05:14:42.057Z,1022.75
2019-03-27T05:15:42.072Z,1022.81
2019-03-27T05:16:42.087Z,1022.81
2019-03-27T05:17:46.302Z,1022.83
2019-03-27T05:18:42.117Z,1022.81
2019-03-27T05:19:42.131Z,1022.85
2019-03-27T05:20:42.147Z,1022.88
2019-03-27T05:21:42.160Z,1022.83
2019-03-27T05:22:42.174Z,1022.85
2019-03-27T05:23:42.189Z,1022.86
2019-03-27T05:24:42.204Z,1022.87
2019-03-27T05:25:42.216Z,1022.87
2019-03-27T05:26:42.230Z,1022.88
2019-03-27T05:27:42.246Z,1022.89
2019-03-27T05:28:42.262Z,1022.91
2019-03-27T05:29:42.276Z,1022.89
2019-03-27T05:30:42.293Z,1022.87
2019-03-27T05:31:42.306Z,1022.89
2019-03-27T05:32:42.321Z,1022.85
2019-03-27T05:33:42.334Z,1022.88
2019-03-27T05:34:42.349Z,1022.91
2019-03-27T05:35:42.362Z,1022.95
2019-03-27T05:36:42.380Z,1022.93
2019-03-27T05:37:42.394Z,1022.91
2019-03-27T05:38:42.410Z,1022.92
2019-03-27T05:39:42.425Z,1022.95
2019-03-27T05:40:42.438Z,1022.96
2019-03-27T05:41:42.450Z,1022.97
2019-03-27T05:42:42.467Z,1022.97
2019-03-27T05:43:42.486Z,1022.99
2019-03-27T05:44:42.498Z,1023.01
2019-03-27T05:45:42.511Z,1022.98
2019-03-27T05:46:42.532Z,1023.04
2019-03-27T05:47:42.550Z,1023.03
2019-03-27T05:48:42.558Z,1023.04
2019-03-27T05:49:42.575Z,1023.02
2019-03-27T05:50:42.586Z,1023.09
2019-03-27T05:51:42.601Z,1023.07
2019-03-27T05:52:42.620Z,1023.02
2019-03-27T05:53:42.631Z,1023.10
2019-03-27T05:54:42.649Z,1023.03
2019-03-27T05:55:42.660Z,1023.08
2019-03-27T05:56:42.676Z,1023.11
2019-03-27T05:57:42.691Z,1023.06
2019-03-27T05:58:42.706Z,1023.09
2019-03-27T05:59:42.721Z,1023.14
2019-03-27T06:00:42.736Z,1023.09
2019-03-27T06:01:42.749Z,1023.10
2019-03-27T06:02:42.765Z,1023.13
2019-03-27T06:03:42.780Z,1023.15
2019-03-27T06:04:42.795Z,1023.15
2019-03-27T06:05:42.809Z,1023.23
2019-03-27T06:06:42.830Z,1023.21
2019-03-27T06:07:42.840Z,1023.24
2019-03-27T06:08:42.857Z,1023.24
2019-03-27T06:09:42.878Z,1023.27
2019-03-27T06:10:42.964Z,1023.28
2019-03-27T06:11:42.959Z,1023.30
2019-03-27T06:12:42.968Z,1023.25
2019-03-27T06:13:42.956Z,1023.30
2019-03-27T06:14:42.977Z,1023.31
2019-03-27T06:15:45.135Z,1023.32
2019-03-27T06:16:43.011Z,1023.29
2019-03-27T06:17:43.021Z,1023.27
2019-03-27T06:18:43.018Z,1023.32
2019-03-27T06:19:43.029Z,1023.39
2019-03-27T06:20:43.034Z,1023.34
2019-03-27T06:21:43.045Z,1023.43
2019-03-27T06:22:43.062Z,1023.39
2019-03-27T06:23:43.076Z,1023.36
2019-03-27T06:24:43.090Z,1023.37
2019-03-27T06:25:43.103Z,1023.42
2019-03-27T06:26:43.124Z,1023.41
2019-03-27T06:27:43.138Z,1023.39
2019-03-27T06:28:43.151Z,1023.41
2019-03-27T06:29:43.165Z,1023.39
2019-03-27T06:30:43.179Z,1023.47
2019-03-27T06:31:43.193Z,1023.54
2019-03-27T06:32:43.211Z,1023.47
2019-03-27T06:33:43.224Z,1023.52
2019-03-27T06:34:43.240Z,1023.47
2019-03-27T06:35:43.254Z,1023.49
2019-03-27T06:36:43.269Z,1023.50
2019-03-27T06:37:43.284Z,1023.48
2019-03-27T06:38:43.301Z,1023.52
2019-03-27T06:39:43.315Z,1023.52
2019-03-27T06:40:43.342Z,1023.54
2019-03-27T06:41:43.345Z,1023.53
2019-03-27T06:42:43.361Z,1023.53
2019-03-27T06:43:43.375Z,1023.52
2019-03-27T06:44:43.390Z,1023.53
2019-03-27T06:45:43.405Z,1023.51
2019-03-27T06:46:43.422Z,1023.55
2019-03-27T06:47:43.435Z,1023.49
2019-03-27T06:48:43.452Z,1023.54
2019-03-27T06:49:43.469Z,1023.53
2019-03-27T06:50:43.481Z,1023.57
2019-03-27T06:51:43.495Z,1023.58
2019-03-27T06:52:43.514Z,1023.56
2019-03-27T06:53:43.528Z,1023.62
2019-03-27T06:54:43.542Z,1023.64
2019-03-27T06:55:43.560Z,1023.65
2019-03-27T06:56:43.576Z,1023.62
2019-03-27T06:57:43.592Z,1023.58
2019-03-27T06:58:54.034Z,1023.60
2019-03-27T06:59:43.622Z,1023.60
2019-03-27T07:00:43.638Z,1023.61
2019-03-27T07:01:43.666Z,1023.59
2019-03-27T07:02:43.675Z,1023.59
2019-03-27T07:03:43.687Z,1023.59
2019-03-27T07:04:43.703Z,1023.55
2019-03-27T07:05:43.718Z,1023.61
2019-03-27T07:06:43.734Z,1023.64
2019-03-27T07:07:43.750Z,1023.61
2019-03-27T07:08:43.766Z,1023.61
2019-03-27T07:09:43.784Z,1023.66
2019-03-27T07:10:43.812Z,1023.63
2019-03-27T07:11:43.818Z,1023.61
2019-03-27T07:12:43.835Z,1023.62
2019-03-27T07:13:43.850Z,1023.65
2019-03-27T07:14:43.868Z,1023.62
2019-03-27T07:15:43.881Z,1023.68
2019-03-27T07:16:43.899Z,1023.67
2019-03-27T07:17:43.915Z,1023.73
2019-03-27T07:18:43.936Z,1023.74
2019-03-27T07:19:43.951Z,1023.72
2019-03-27T07:20:43.966Z,1023.75
2019-03-27T07:21:43.982Z,1023.73
2019-03-27T07:22:44.002Z,1023.77
2019-03-27T07:23:44.021Z,1023.72
2019-03-27T07:24:44.036Z,1023.70
2019-03-27T07:25:44.052Z,1023.75
2019-03-27T07:26:44.067Z,1023.73
2019-03-27T07:27:44.088Z,1023.70
2019-03-27T07:28:44.105Z,1023.68
2019-03-27T07:29:44.116Z,1023.73
2019-03-27T07:30:44.137Z,1023.74
2019-03-27T07:31:44.152Z,1023.73
2019-03-27T07:32:44.171Z,1023.81
2019-03-27T07:33:44.186Z,1023.75
2019-03-27T07:34:44.204Z,1023.78
2019-03-27T07:35:44.222Z,1023.83
2019-03-27T07:36:44.240Z,1023.79
2019-03-27T07:37:44.254Z,1023.84
2019-03-27T07:38:44.272Z,1023.86
2019-03-27T07:39:44.289Z,1023.90
2019-03-27T07:40:44.306Z,1023.89
2019-03-27T07:41:44.382Z,1023.82
2019-03-27T07:42:44.341Z,1023.91
2019-03-27T07:43:44.360Z,1023.85
2019-03-27T07:44:44.381Z,1023.91
2019-03-27T07:45:44.396Z,1023.94
2019-03-27T07:46:44.411Z,1023.95
2019-03-27T07:47:44.429Z,1023.97
2019-03-27T07:48:53.731Z,1024.02
2019-03-27T07:49:44.464Z,1024.00
2019-03-27T07:50:44.483Z,1024.04
2019-03-27T07:51:44.500Z,1024.00
2019-03-27T07:52:44.521Z,1023.98
2019-03-27T07:53:44.537Z,1023.96
2019-03-27T07:54:44.551Z,1023.92
2019-03-27T07:55:44.570Z,1023.94
2019-03-27T07:56:44.590Z,1023.93
2019-03-27T07:57:44.605Z,1023.91
2019-03-27T07:58:44.622Z,1023.95
2019-03-27T07:59:44.640Z,1024.02
2019-03-27T08:00:44.660Z,1024.01
2019-03-27T08:01:44.676Z,1024.02
2019-03-27T08:02:44.693Z,1024.02
2019-03-27T08:03:44.713Z,1024.02
2019-03-27T08:04:44.739Z,1024.06
2019-03-27T08:05:44.822Z,1024.05
2019-03-27T08:06:44.818Z,1024.11
2019-03-27T08:07:44.818Z,1024.08
2019-03-27T08:08:44.831Z,1024.11
2019-03-27T08:09:44.900Z,1024.13
2019-03-27T08:10:44.882Z,1024.06
2019-03-27T08:11:44.875Z,1024.11
2019-03-27T08:12:44.896Z,1024.12
2019-03-27T08:13:44.887Z,1024.11
2019-03-27T08:14:44.906Z,1024.13
2019-03-27T08:15:44.921Z,1024.16
2019-03-27T08:16:44.940Z,1024.19
2019-03-27T08:17:44.960Z,1024.16
2019-03-27T08:18:44.979Z,1024.16
2019-03-27T08:19:44.994Z,1024.11
2019-03-27T08:20:45.012Z,1024.15
2019-03-27T08:21:45.028Z,1024.10
2019-03-27T08:22:45.047Z,1024.08
2019-03-27T08:23:45.064Z,1024.04
2019-03-27T08:24:45.082Z,1024.01
2019-03-27T08:25:45.100Z,1024.04
2019-03-27T08:26:45.116Z,1024.05
2019-03-27T08:27:45.137Z,1024.08
2019-03-27T08:28:45.172Z,1024.10
2019-03-27T08:29:45.193Z,1024.09
2019-03-27T08:30:45.199Z,1024.03
2019-03-27T08:31:45.207Z,1024.06
2019-03-27T08:32:45.226Z,1024.06
2019-03-27T08:33:45.244Z,1024.13
2019-03-27T08:34:45.260Z,1024.09
2019-03-27T08:35:45.284Z,1024.14
2019-03-27T08:36:45.298Z,1024.17
2019-03-27T08:37:45.316Z,1024.16
2019-03-27T08:38:45.331Z,1024.11
2019-03-27T08:39:45.351Z,1024.09
2019-03-27T08:40:45.373Z,1024.15
2019-03-27T08:41:45.395Z,1024.18
2019-03-27T08:42:45.404Z,1024.22
2019-03-27T08:43:45.474Z,1024.22
2019-03-27T08:44:45.440Z,1024.16
2019-03-27T08:45:45.455Z,1024.16
2019-03-27T08:46:45.495Z,1024.17
2019-03-27T08:47:45.491Z,1024.18
2019-03-27T08:48:45.510Z,1024.14
2019-03-27T08:49:45.527Z,1024.20
2019-03-27T08:50:45.545Z,1024.26
2019-03-27T08:51:45.562Z,1024.28
2019-03-27T08:52:45.582Z,1024.33
2019-03-27T08:53:45.597Z,1024.28
2019-03-27T08:54:45.621Z,1024.28
2019-03-27T08:55:45.633Z,1024.24
2019-03-27T08:56:45.652Z,1024.27
2019-03-27T08:57:45.669Z,1024.28
2019-03-27T08:58:45.687Z,1024.33
2019-03-27T08:59:45.706Z,1024.32
2019-03-27T09:00:45.728Z,1024.29
2019-03-27T09:01:45.758Z,1024.30
2019-03-27T09:02:45.761Z,1024.24
2019-03-27T09:03:45.778Z,1024.28
2019-03-27T09:04:45.798Z,1024.23
2019-03-27T09:05:45.814Z,1024.19
2019-03-27T09:06:45.832Z,1024.17
2019-03-27T09:07:45.851Z,1024.13
2019-03-27T09:08:45.870Z,1024.17
2019-03-27T09:09:45.887Z,1024.15
2019-03-27T09:10:45.904Z,1024.21
2019-03-27T09:11:45.934Z,1024.26
2019-03-27T09:12:45.942Z,1024.17
2019-03-27T09:13:45.959Z,1024.27
2019-03-27T09:14:45.978Z,1024.36
2019-03-27T09:15:45.996Z,1024.28
2019-03-27T09:16:46.016Z,1024.31
2019-03-27T09:17:46.033Z,1024.27
2019-03-27T09:18:46.051Z,1024.30
2019-03-27T09:19:46.070Z,1024.35
2019-03-27T09:20:46.091Z,1024.33
2019-03-27T09:21:46.106Z,1024.30
2019-03-27T09:22:46.125Z,1024.31
2019-03-27T09:23:46.168Z,1024.31
2019-03-27T09:24:46.161Z,1024.29
2019-03-27T09:25:46.179Z,1024.34
2019-03-27T09:26:46.199Z,1024.34
2019-03-27T09:27:46.217Z,1024.23
2019-03-27T09:28:46.237Z,1024.33
2019-03-27T09:29:46.255Z,1024.42
2019-03-27T09:30:46.274Z,1024.40
2019-03-27T09:31:46.297Z,1024.35
2019-03-27T09:32:46.316Z,1024.32
2019-03-27T09:33:46.331Z,1024.27
2019-03-27T09:34:46.363Z,1024.31
2019-03-27T09:35:46.393Z,1024.34
2019-03-27T09:36:46.391Z,1024.29
2019-03-27T09:37:46.410Z,1024.25
2019-03-27T09:38:46.433Z,1024.26
2019-03-27T09:39:46.450Z,1024.35
2019-03-27T09:40:46.472Z,1024.38
2019-03-27T09:41:46.487Z,1024.43
2019-03-27T09:42:46.508Z,1024.52
2019-03-27T09:43:46.525Z,1024.49
2019-03-27T09:44:46.545Z,1024.43
2019-03-27T09:45:46.564Z,1024.34
2019-03-27T09:46:46.583Z,1024.32
2019-03-27T09:47:46.639Z,1024.32
2019-03-27T09:48:46.693Z,1024.34
2019-03-27T09:49:49.887Z,1024.36
2019-03-27T09:50:46.703Z,1024.40
2019-03-27T09:51:46.753Z,1024.43
2019-03-27T09:52:46.777Z,1024.40
2019-03-27T09:53:46.748Z,1024.41
2019-03-27T09:54:46.768Z,1024.42
2019-03-27T09:55:46.769Z,1024.41
2019-03-27T09:56:46.772Z,1024.35
2019-03-27T09:57:46.793Z,1024.34
2019-03-27T09:58:46.813Z,1024.29
2019-03-27T09:59:46.831Z,1024.30
2019-03-27T10:00:46.853Z,1024.31
2019-03-27T10:01:46.868Z,1024.33
2019-03-27T10:02:46.889Z,1024.40
2019-03-27T10:03:46.908Z,1024.39
2019-03-27T10:04:46.927Z,1024.45
2019-03-27T10:05:46.945Z,1024.44
2019-03-27T10:07:23.230Z,1024.50
2019-03-27T10:07:47.003Z,1024.48
2019-03-27T10:08:47.018Z,1024.43
2019-03-27T10:09:50.100Z,1024.43
2019-03-27T10:10:47.055Z,1024.39
2019-03-27T10:11:47.077Z,1024.44
2019-03-27T10:12:47.094Z,1024.48
2019-03-27T10:13:47.114Z,1024.41
2019-03-27T10:14:47.696Z,1024.39
2019-03-27T10:15:47.151Z,1024.31
2019-03-27T10:16:47.172Z,1024.29
2019-03-27T10:17:47.188Z,1024.33
2019-03-27T10:18:47.538Z,1024.29
2019-03-27T10:19:47.225Z,1024.35
2019-03-27T10:20:47.247Z,1024.45
2019-03-27T10:21:47.263Z,1024.48
2019-03-27T10:22:47.282Z,1024.51
2019-03-27T10:23:47.302Z,1024.61
2019-03-27T10:24:47.322Z,1024.56
2019-03-27T10:25:47.341Z,1024.56
2019-03-27T10:26:47.361Z,1024.54
2019-03-27T10:28:29.563Z,1024.44
2019-03-27T10:29:29.582Z,1024.51
2019-03-27T10:30:29.603Z,1024.50
2019-03-27T10:31:29.620Z,1024.47
2019-03-27T10:32:29.642Z,1024.55
2019-03-27T10:33:29.659Z,1024.58
2019-03-27T10:34:29.678Z,1024.60
2019-03-27T10:35:29.700Z,1024.52
2019-03-27T10:36:29.718Z,1024.50
2019-03-27T10:37:29.736Z,1024.52
2019-03-27T10:38:29.755Z,1024.55
2019-03-27T10:39:29.776Z,1024.58
2019-03-27T10:40:29.999Z,1024.55
2019-03-27T10:41:29.815Z,1024.50
2019-03-27T10:42:29.834Z,1024.50
2019-03-27T10:43:29.852Z,1024.44
2019-03-27T10:44:29.875Z,1024.49
2019-03-27T10:45:29.902Z,1024.52
2019-03-27T10:46:29.911Z,1024.46
2019-03-27T10:47:29.932Z,1024.42
2019-03-27T10:48:29.950Z,1024.38
2019-03-27T10:50:17.680Z,1024.43
2019-03-27T10:51:12.175Z,1024.43
2019-03-27T10:52:12.194Z,1024.43
2019-03-27T10:53:12.214Z,1024.50
2019-03-27T10:54:12.233Z,1024.53
2019-03-27T10:55:12.252Z,1024.46
2019-03-27T10:56:12.273Z,1024.47
2019-03-27T10:57:12.291Z,1024.45
2019-03-27T10:58:12.310Z,1024.47
2019-03-27T10:59:12.330Z,1024.52
2019-03-27T11:00:12.353Z,1024.54
2019-03-27T11:01:12.369Z,1024.54
2019-03-27T11:02:12.389Z,1024.55
2019-03-27T11:03:12.410Z,1024.52
2019-03-27T11:04:12.427Z,1024.56
2019-03-27T11:05:12.447Z,1024.56
2019-03-27T11:06:12.466Z,1024.50
2019-03-27T11:07:12.485Z,1024.52
2019-03-27T11:08:12.509Z,1024.53
2019-03-27T11:09:12.555Z,1024.57
2019-03-27T11:10:12.610Z,1024.55
2019-03-27T11:11:12.618Z,1024.51
2019-03-27T11:12:12.606Z,1024.43
2019-03-27T11:13:12.672Z,1024.42
2019-03-27T11:14:12.666Z,1024.47
2019-03-27T11:15:12.668Z,1024.46
2019-03-27T11:16:12.666Z,1024.53
2019-03-27T11:17:12.679Z,1024.55
2019-03-27T11:18:12.697Z,1024.50
2019-03-27T11:19:12.715Z,1024.46
2019-03-27T11:20:12.739Z,1024.41
2019-03-27T11:21:12.756Z,1024.44
2019-03-27T11:22:12.778Z,1024.41
2019-03-27T11:23:12.792Z,1024.44
2019-03-27T11:24:12.812Z,1024.49
2019-03-27T11:25:12.832Z,1024.53
2019-03-27T11:26:12.854Z,1024.55
2019-03-27T11:27:12.868Z,1024.52
2019-03-27T11:28:12.893Z,1024.51
2019-03-27T11:29:12.907Z,1024.45
2019-03-27T11:30:12.928Z,1024.48
2019-03-27T11:31:12.946Z,1024.44
2019-03-27T11:32:12.965Z,1024.47
2019-03-27T11:33:12.984Z,1024.44
2019-03-27T11:34:13.004Z,1024.41
2019-03-27T11:35:13.019Z,1024.46
2019-03-27T11:36:13.041Z,1024.53
2019-03-27T11:37:13.062Z,1024.67
2019-03-27T11:38:13.081Z,1024.66
2019-03-27T11:39:13.101Z,1024.68
2019-03-27T11:40:13.118Z,1024.49
2019-03-27T11:41:13.138Z,1024.41
2019-03-27T11:42:13.157Z,1024.52
2019-03-27T11:43:13.174Z,1024.46
2019-03-27T11:44:13.191Z,1024.49
2019-03-27T11:45:13.223Z,1024.52
2019-03-27T11:46:13.229Z,1024.44
2019-03-27T11:47:13.252Z,1024.44
2019-03-27T11:48:13.270Z,1024.48
2019-03-27T11:49:13.288Z,1024.39
2019-03-27T11:50:13.310Z,1024.38
2019-03-27T11:51:13.326Z,1024.34
2019-03-27T11:52:13.347Z,1024.39
2019-03-27T11:53:13.368Z,1024.48
2019-03-27T11:54:13.386Z,1024.54
2019-03-27T11:55:13.404Z,1024.45
2019-03-27T11:56:13.427Z,1024.38
2019-03-27T11:58:37.814Z,1024.35
2019-03-27T11:59:37.829Z,1024.43
2019-03-27T12:00:37.854Z,1024.46
2019-03-27T12:01:42.111Z,1024.49
2019-03-27T12:02:37.893Z,1024.39
2019-03-27T12:03:37.909Z,1024.38
2019-03-27T12:04:37.964Z,1024.23
2019-03-27T12:05:37.951Z,1024.18
2019-03-27T12:06:37.970Z,1024.22
2019-03-27T12:07:37.993Z,1024.20
2019-03-27T12:08:38.011Z,1024.19